createdAt,value
2019-03-19T02:19:43.529Z,4.00
2019-03-19T03:56:14.719Z,1.80
2019-03-19T06:02:32.817Z,1.20
2019-03-19T07:59:13.013Z,1.00
2019-03-19T10:58:25.011Z,5.40
2019-03-19T11:15:44.655Z,10.90
2019-03-19T11:45:26.051Z,11.60
2019-03-19T11:48:14.106Z,12.40
2019-03-19T12:35:39.470Z,12.80
2019-03-19T12:38:08.265Z,12.10
2019-03-19T12:40:37.697Z,12.00
2019-03-19T12:43:06.806Z,11.70
2019-03-19T12:45:35.717Z,11.70
2019-03-19T12:48:04.713Z,12.70
2019-03-19T12:50:33.602Z,12.90
2019-03-19T12:53:02.395Z,13.30
2019-03-19T12:55:31.301Z,12.70
2019-03-19T12:58:01.382Z,12.70
2019-03-19T13:00:34.749Z,13.40
2019-03-19T13:03:01.360Z,13.40
2019-03-19T13:05:30.193Z,12.60
2019-03-19T13:07:59.010Z,12.20
2019-03-19T13:10:27.909Z,12.30
2019-03-19T13:12:56.980Z,13.00
2019-03-19T13:15:26.083Z,13.30
2019-03-19T13:17:54.970Z,13.40
2019-03-19T13:20:24.037Z,13.10
2019-03-19T13:22:52.884Z,13.40
2019-03-19T13:25:21.838Z,13.10
2019-03-19T13:27:51.167Z,12.90
2019-03-19T13:30:20.246Z,13.50
2019-03-19T13:32:49.100Z,13.60
2019-03-19T13:35:18.023Z,13.70
2019-03-19T13:37:47.085Z,13.70
2019-03-19T13:40:16.655Z,14.00
2019-03-19T13:42:45.642Z,14.00
2019-03-19T13:45:14.913Z,13.70
2019-03-19T13:47:43.713Z,13.40
2019-03-19T13:50:12.707Z,13.70
2019-03-19T13:52:41.592Z,14.00
2019-03-19T13:55:12.386Z,14.20
2019-03-19T13:57:41.169Z,14.20
2019-03-19T14:00:11.347Z,14.20
2019-03-19T14:02:40.240Z,13.70
2019-03-19T14:05:09.533Z,13.40
2019-03-19T14:07:38.623Z,12.90
2019-03-19T14:10:08.598Z,12.80
2019-03-19T14:12:37.541Z,12.70
2019-03-19T14:15:07.682Z,12.50
2019-03-19T14:17:36.765Z,12.30
2019-03-19T14:20:07.454Z,12.10
2019-03-19T14:22:36.289Z,11.80
2019-03-19T14:25:05.900Z,11.80
2019-03-19T14:27:34.800Z,11.80
2019-03-19T14:30:04.233Z,11.80
2019-03-19T14:32:33.063Z,11.80
2019-03-19T14:35:01.903Z,11.80
2019-03-19T14:37:30.795Z,11.70
2019-03-19T14:39:59.590Z,11.70
2019-03-19T14:42:28.506Z,11.80
2019-03-19T14:44:57.388Z,11.80
2019-03-19T14:47:28.195Z,11.70
2019-03-19T14:49:56.900Z,11.70
2019-03-19T14:52:25.763Z,11.60
2019-03-19T14:54:54.778Z,11.60
2019-03-19T14:57:23.684Z,11.50
2019-03-19T14:59:52.557Z,11.40
2019-03-19T15:02:21.661Z,11.40
2019-03-19T15:04:50.522Z,11.40
2019-03-19T15:07:19.681Z,11.40
2019-03-19T15:09:48.549Z,11.40
2019-03-19T15:12:17.425Z,11.40
2019-03-19T15:14:46.344Z,11.30
2019-03-19T15:17:15.269Z,11.40
2019-03-19T15:19:45.687Z,11.40
2019-03-19T15:22:14.486Z,11.40
2019-03-19T15:24:43.383Z,11.40
2019-03-19T15:27:12.553Z,11.30
2019-03-19T15:29:41.472Z,11.30
2019-03-19T15:32:10.320Z,11.30
2019-03-19T15:34:39.137Z,11.30
2019-03-19T15:37:07.968Z,11.30
2019-03-19T15:39:36.810Z,11.30
2019-03-19T15:42:05.760Z,11.30
2019-03-19T15:44:34.768Z,11.30
2019-03-19T15:47:03.693Z,11.30
2019-03-19T15:49:38.265Z,11.30
2019-03-19T15:52:03.244Z,11.30
2019-03-19T15:54:32.081Z,11.30
2019-03-19T15:57:01.035Z,11.30
2019-03-19T15:59:29.852Z,11.30
2019-03-19T16:01:58.696Z,11.30
2019-03-19T16:04:27.601Z,11.30
2019-03-19T16:06:56.428Z,11.30
2019-03-19T16:09:25.405Z,11.30
2019-03-19T16:11:54.312Z,11.30
2019-03-19T16:14:23.368Z,11.30
2019-03-19T16:16:52.400Z,11.40
2019-03-19T16:19:21.237Z,11.30
2019-03-19T16:21:50.072Z,11.30
2019-03-19T16:24:18.857Z,11.40
2019-03-19T16:26:47.685Z,11.40
2019-03-19T16:29:16.577Z,11.40
2019-03-19T16:31:50.939Z,11.30
2019-03-19T16:34:16.045Z,11.40
2019-03-19T16:36:46.340Z,11.30
2019-03-19T16:39:15.156Z,11.30
2019-03-19T16:41:44.065Z,11.30
2019-03-19T16:44:12.880Z,11.30
2019-03-19T16:46:41.797Z,11.20
2019-03-19T16:49:10.637Z,11.20
2019-03-19T16:51:39.628Z,11.20
2019-03-19T16:54:08.441Z,11.00
2019-03-19T16:56:37.260Z,11.00
2019-03-19T16:59:06.264Z,11.00
2019-03-19T17:01:35.076Z,10.90
2019-03-19T17:04:04.033Z,10.80
2019-03-19T17:06:32.944Z,10.80
2019-03-19T17:09:01.764Z,10.80
2019-03-19T17:11:30.777Z,10.70
2019-03-19T17:13:59.658Z,10.70
2019-03-19T17:16:28.425Z,10.70
2019-03-19T17:18:57.249Z,10.60
2019-03-19T17:21:26.062Z,10.50
2019-03-19T17:23:55.039Z,10.50
2019-03-19T17:26:23.956Z,10.40
2019-03-19T17:28:52.858Z,10.40
2019-03-19T17:31:21.688Z,10.30
2019-03-19T17:33:50.520Z,10.30
2019-03-19T17:36:19.375Z,10.20
2019-03-19T17:38:48.181Z,10.20
2019-03-19T17:41:16.988Z,10.10
2019-03-19T17:43:45.849Z,10.00
2019-03-19T17:46:14.738Z,9.90
2019-03-19T17:48:43.636Z,9.80
2019-03-19T17:51:12.484Z,9.80
2019-03-19T17:53:41.307Z,9.70
2019-03-19T17:56:12.078Z,9.70
2019-03-19T17:58:40.956Z,9.60
2019-03-19T18:01:17.467Z,9.60
2019-03-19T18:03:40.312Z,9.60
2019-03-19T18:06:09.236Z,9.50
2019-03-19T18:08:39.377Z,9.50
2019-03-19T18:11:08.333Z,9.40
2019-03-19T18:13:37.273Z,9.40
2019-03-19T18:16:06.162Z,9.30
2019-03-19T18:18:35.025Z,9.30
2019-03-19T18:21:03.909Z,9.30
2019-03-19T18:23:32.911Z,9.20
2019-03-19T18:26:01.973Z,9.20
2019-03-19T18:28:30.789Z,9.10
2019-03-19T18:30:59.684Z,9.00
2019-03-19T18:33:28.610Z,9.00
2019-03-19T18:35:57.446Z,9.00
2019-03-19T18:38:26.360Z,8.90
2019-03-19T18:40:55.198Z,8.90
2019-03-19T18:43:24.083Z,8.80
2019-03-19T18:45:52.897Z,8.80
2019-03-19T18:48:21.765Z,8.70
2019-03-19T18:50:50.598Z,8.70
2019-03-19T18:53:19.421Z,8.70
2019-03-19T18:55:48.241Z,8.60
2019-03-19T18:58:17.265Z,8.60
2019-03-19T19:00:46.084Z,8.60
2019-03-19T19:03:14.932Z,8.60
2019-03-19T19:05:43.770Z,8.50
2019-03-19T19:08:12.645Z,8.50
2019-03-19T19:15:38.534Z,8.50
2019-03-19T20:30:30.501Z,8.40
2019-03-19T20:33:02.276Z,7.60
2019-03-19T21:27:46.461Z,7.50
2019-03-19T21:30:15.918Z,6.90
2019-03-19T21:32:44.891Z,6.90
2019-03-19T21:35:13.843Z,6.80
2019-03-19T21:37:42.758Z,6.80
2019-03-19T21:40:12.819Z,6.80
2019-03-19T21:42:41.910Z,6.70
2019-03-19T21:45:11.332Z,6.80
2019-03-19T21:57:35.112Z,6.70
2019-03-19T22:10:17.248Z,6.60
2019-03-19T22:12:46.216Z,6.40
2019-03-19T22:15:16.351Z,6.40
2019-03-19T22:17:45.397Z,6.40
2019-03-19T22:20:14.856Z,6.40
2019-03-19T22:22:43.926Z,6.40
2019-03-19T23:37:00.451Z,6.30
2019-03-19T23:39:29.431Z,5.90
2019-03-19T23:41:58.257Z,5.90
2019-03-19T23:44:27.062Z,5.90
2019-03-19T23:46:57.639Z,6.00
2019-03-19T23:49:26.668Z,5.90
2019-03-19T23:51:55.698Z,5.90
2019-03-19T23:54:24.558Z,5.90
2019-03-19T23:56:53.592Z,5.90
2019-03-19T23:59:22.495Z,5.90
